createdAt,value
2023-01-03T00:03:02.935Z,59.98
2023-01-03T00:06:16.828Z,59.46
2023-01-03T00:09:23.735Z,59.71
2023-01-03T00:12:31.178Z,60.61
2023-01-03T00:15:36.955Z,60.39
2023-01-03T00:18:42.665Z,60.76
2023-01-03T00:21:48.118Z,59.90
2023-01-03T00:24:54.039Z,59.66
2023-01-03T00:27:58.113Z,59.79
2023-01-03T00:31:07.266Z,59.67
2023-01-03T00:34:11.890Z,59.21
2023-01-03T00:37:17.378Z,59.08
2023-01-03T00:40:26.506Z,59.22
2023-01-03T00:43:29.926Z,59.14
2023-01-03T00:46:34.476Z,59.25
2023-01-03T00:49:38.410Z,58.88
2023-01-03T00:52:43.953Z,58.54
2023-01-03T00:55:48.126Z,58.32
2023-01-03T00:58:53.778Z,58.79
2023-01-03T01:01:59.116Z,58.76
2023-01-03T01:05:07.166Z,59.68
2023-01-03T01:08:13.253Z,58.98
2023-01-03T01:11:21.383Z,57.90
2023-01-03T01:14:28.393Z,58.62
2023-01-03T01:17:33.265Z,58.79
2023-01-03T01:20:40.747Z,58.76
2023-01-03T01:23:48.407Z,58.49
2023-01-03T01:26:52.670Z,58.47
2023-01-03T01:29:56.723Z,58.18
2023-01-03T01:33:00.325Z,58.64
2023-01-03T01:36:07.735Z,58.25
2023-01-03T01:39:15.110Z,59.50
2023-01-03T01:42:37.585Z,59.86
2023-01-03T01:45:41.064Z,59.85
2023-01-03T01:48:45.055Z,60.44
2023-01-03T01:51:50.086Z,60.27
2023-01-03T01:54:57.904Z,60.57
2023-01-03T01:58:03.132Z,59.98
2023-01-03T02:01:11.336Z,60.43
2023-01-03T02:04:20.803Z,59.98
2023-01-03T02:07:27.614Z,59.42
2023-01-03T02:10:53.452Z,58.79
2023-01-03T02:14:11.639Z,58.34
2023-01-03T02:17:22.215Z,58.58
2023-01-03T02:20:38.588Z,59.52
2023-01-03T02:24:22.611Z,59.60
2023-01-03T02:28:01.115Z,59.12
2023-01-03T02:31:13.205Z,58.50
2023-01-03T02:34:25.057Z,58.37
2023-01-03T02:37:35.805Z,57.88
2023-01-03T02:40:45.672Z,58.31
2023-01-03T02:43:56.263Z,58.06
2023-01-03T02:47:11.441Z,57.62
2023-01-03T02:50:16.409Z,57.75
2023-01-03T02:53:28.906Z,57.84
2023-01-03T02:56:39.607Z,58.45
2023-01-03T02:59:48.508Z,59.30
2023-01-03T03:02:59.553Z,58.30
2023-01-03T03:06:13.933Z,58.59
2023-01-03T03:09:21.201Z,58.88
2023-01-03T03:12:49.028Z,58.86
2023-01-03T03:15:59.635Z,59.57
2023-01-03T03:19:41.052Z,60.16
2023-01-03T03:23:09.013Z,60.41
2023-01-03T03:26:17.718Z,60.46
2023-01-03T03:29:21.137Z,60.48
2023-01-03T03:32:28.470Z,60.62
2023-01-03T03:35:38.252Z,59.34
2023-01-03T03:38:46.642Z,58.52
2023-01-03T03:42:11.499Z,58.89
2023-01-03T03:45:26.298Z,58.69
2023-01-03T03:48:54.666Z,59.20
2023-01-03T03:52:03.228Z,59.30
2023-01-03T03:55:12.848Z,59.40
2023-01-03T03:58:23.368Z,59.09
2023-01-03T04:01:29.397Z,59.20
2023-01-03T04:04:38.300Z,58.62
2023-01-03T04:07:44.764Z,58.88
2023-01-03T04:10:49.478Z,58.08
2023-01-03T04:13:53.190Z,57.96
2023-01-03T04:16:57.427Z,58.01
2023-01-03T04:20:02.331Z,57.73
2023-01-03T04:23:07.733Z,57.89
2023-01-03T04:26:13.185Z,57.88
2023-01-03T04:29:18.605Z,57.75
2023-01-03T04:32:26.106Z,58.07
2023-01-03T04:35:33.684Z,57.93
2023-01-03T04:38:38.850Z,57.80
2023-01-03T04:41:43.159Z,58.27
2023-01-03T04:44:45.680Z,58.05
2023-01-03T04:47:49.836Z,57.77
2023-01-03T04:50:54.736Z,58.50
2023-01-03T04:54:00.849Z,59.75
2023-01-03T04:57:04.866Z,59.06
2023-01-03T05:00:10.285Z,59.28
2023-01-03T05:03:14.473Z,58.19
2023-01-03T05:06:21.893Z,58.03
2023-01-03T05:09:28.599Z,58.65
2023-01-03T05:12:32.577Z,59.21
2023-01-03T05:15:38.081Z,59.39
2023-01-03T05:18:42.911Z,57.99
2023-01-03T05:22:16.127Z,57.42
2023-01-03T05:25:39.563Z,57.66
2023-01-03T05:28:46.686Z,57.75
2023-01-03T05:31:51.912Z,58.29
2023-01-03T05:34:55.627Z,57.94
2023-01-03T05:38:00.814Z,57.37
2023-01-03T05:41:08.197Z,57.71
2023-01-03T05:44:12.215Z,57.47
2023-01-03T05:47:16.855Z,59.40
2023-01-03T05:50:21.132Z,57.74
2023-01-03T05:53:26.221Z,58.47
2023-01-03T05:56:32.432Z,58.72
2023-01-03T05:59:36.263Z,59.39
2023-01-03T06:02:40.511Z,58.56
2023-01-03T06:05:50.612Z,59.22
2023-01-03T06:08:56.781Z,59.33
2023-01-03T06:12:08.333Z,58.38
2023-01-03T06:15:15.340Z,58.00
2023-01-03T06:18:17.940Z,57.94
2023-01-03T06:21:22.317Z,57.71
2023-01-03T06:24:26.126Z,57.74
2023-01-03T06:27:31.624Z,57.25
2023-01-03T06:30:37.120Z,57.15
2023-01-03T06:33:43.597Z,57.42
2023-01-03T06:36:47.279Z,58.49
2023-01-03T06:39:51.196Z,57.89
2023-01-03T06:42:56.474Z,57.64
2023-01-03T06:46:18.997Z,57.99
2023-01-03T06:49:41.702Z,57.97
2023-01-03T06:53:02.993Z,58.62
2023-01-03T06:56:07.475Z,58.53
2023-01-03T06:59:14.261Z,59.04
2023-01-03T07:02:18.042Z,58.06
2023-01-03T07:05:24.817Z,58.26
2023-01-03T07:08:29.665Z,57.82
2023-01-03T07:11:36.019Z,57.45
2023-01-03T07:14:44.336Z,58.17
2023-01-03T07:17:49.293Z,57.89
2023-01-03T07:20:54.999Z,58.02
2023-01-03T07:24:04.385Z,60.19
2023-01-03T07:27:08.239Z,60.27
2023-01-03T07:30:14.680Z,59.70
2023-01-03T07:33:19.347Z,59.15
2023-01-03T07:36:23.708Z,59.75
2023-01-03T07:39:27.295Z,59.97
2023-01-03T07:42:57.663Z,60.12
2023-01-03T07:46:07.536Z,59.92
2023-01-03T07:49:12.531Z,60.11
2023-01-03T07:52:16.310Z,59.66
2023-01-03T07:55:20.185Z,59.34
2023-01-03T07:58:23.678Z,60.02
2023-01-03T08:01:30.339Z,59.70
2023-01-03T08:04:34.540Z,60.18
2023-01-03T08:07:39.323Z,60.69
2023-01-03T08:11:02.990Z,61.09
2023-01-03T08:14:07.381Z,61.73
2023-01-03T08:17:20.282Z,61.68
2023-01-03T08:20:25.324Z,62.02
2023-01-03T08:23:30.264Z,62.27
2023-01-03T08:26:34.309Z,62.19
2023-01-03T08:29:45.235Z,62.25
2023-01-03T08:32:51.266Z,61.69
2023-01-03T08:36:01.909Z,62.35
2023-01-03T08:39:11.555Z,61.57
2023-01-03T08:42:20.770Z,61.56
2023-01-03T08:45:39.729Z,62.28
2023-01-03T08:48:46.192Z,62.01
2023-01-03T08:51:52.858Z,62.12
2023-01-03T08:55:05.706Z,62.96
2023-01-03T08:58:10.105Z,62.71
2023-01-03T09:01:17.327Z,62.28
2023-01-03T09:04:23.043Z,62.89
2023-01-03T09:07:26.565Z,62.42
2023-01-03T09:10:39.702Z,62.80
2023-01-03T09:13:46.873Z,63.79
2023-01-03T09:16:51.118Z,65.40
2023-01-03T09:19:56.714Z,65.65
2023-01-03T09:23:02.202Z,65.14
2023-01-03T09:26:07.784Z,66.94
2023-01-03T09:29:15.362Z,64.86
2023-01-03T09:32:38.409Z,65.58
2023-01-03T09:35:54.249Z,66.07
2023-01-03T09:38:57.783Z,66.95
2023-01-03T09:42:22.230Z,66.64
2023-01-03T09:45:29.893Z,66.69
2023-01-03T09:48:36.937Z,66.90
2023-01-03T09:52:05.514Z,66.23
2023-01-03T09:55:43.979Z,68.00
2023-01-03T09:59:13.838Z,67.96
2023-01-03T10:03:10.107Z,68.99
2023-01-03T10:06:30.332Z,67.81
2023-01-03T10:09:44.432Z,68.52
2023-01-03T10:13:02.819Z,68.13
2023-01-03T10:16:18.161Z,67.99
2023-01-03T10:19:40.358Z,69.43
2023-01-03T10:22:48.649Z,69.59
2023-01-03T10:25:54.309Z,69.41
2023-01-03T10:29:00.282Z,68.99
2023-01-03T10:32:29.279Z,68.67
2023-01-03T10:35:35.812Z,68.37
2023-01-03T10:38:53.316Z,68.09
2023-01-03T10:42:10.353Z,67.79
2023-01-03T10:45:17.785Z,67.41
2023-01-03T10:48:24.831Z,66.84
2023-01-03T10:51:38.468Z,66.75
2023-01-03T10:54:55.874Z,66.76
2023-01-03T10:58:04.953Z,66.33
2023-01-03T11:01:31.597Z,66.54
2023-01-03T11:04:39.286Z,66.43
2023-01-03T11:07:48.490Z,66.11
2023-01-03T11:11:00.649Z,65.98
2023-01-03T11:14:36.644Z,66.18
2023-01-03T11:17:55.162Z,65.92
2023-01-03T11:21:09.224Z,65.36
2023-01-03T11:24:32.031Z,65.46
2023-01-03T11:28:30.672Z,65.04
2023-01-03T11:31:54.288Z,64.55
2023-01-03T11:35:23.897Z,64.61
2023-01-03T11:38:53.942Z,64.78
2023-01-03T11:42:21.782Z,65.05
2023-01-03T11:45:48.424Z,64.61
2023-01-03T11:49:20.202Z,64.71
2023-01-03T11:52:49.255Z,64.34
2023-01-03T11:56:08.484Z,64.11
2023-01-03T11:59:45.357Z,64.16
2023-01-03T12:03:08.415Z,63.81
2023-01-03T12:07:45.214Z,64.08
2023-01-03T12:10:41.770Z,63.95
2023-01-03T12:13:54.353Z,63.91
2023-01-03T12:17:04.078Z,64.02
2023-01-03T12:20:16.255Z,63.70
2023-01-03T12:23:33.486Z,63.69
2023-01-03T12:26:43.456Z,63.53
2023-01-03T12:30:00.250Z,63.39
2023-01-03T12:33:15.872Z,63.81
2023-01-03T12:36:29.450Z,63.48
2023-01-03T12:39:48.541Z,63.50
2023-01-03T12:43:04.870Z,63.63
2023-01-03T12:46:22.627Z,63.63
2023-01-03T12:49:36.943Z,63.85
2023-01-03T12:52:43.770Z,63.80
2023-01-03T12:56:10.109Z,63.93
2023-01-03T12:59:39.208Z,64.12
2023-01-03T13:02:51.354Z,63.41
2023-01-03T13:06:00.641Z,63.85
2023-01-03T13:09:08.596Z,63.48
2023-01-03T13:12:17.379Z,63.82
2023-01-03T13:15:36.089Z,63.50
2023-01-03T13:18:42.201Z,63.31
2023-01-03T13:22:02.701Z,63.53
2023-01-03T13:25:40.892Z,63.37
2023-01-03T13:28:45.646Z,63.47
2023-01-03T13:32:18.181Z,63.51
2023-01-03T13:35:33.041Z,63.47
2023-01-03T13:38:37.118Z,63.49
2023-01-03T13:41:41.367Z,63.28
2023-01-03T13:44:44.979Z,63.07
2023-01-03T13:47:51.751Z,63.06
2023-01-03T13:51:08.350Z,62.89
2023-01-03T13:54:36.588Z,62.85
2023-01-03T13:57:53.606Z,62.95
2023-01-03T14:01:05.582Z,62.98
2023-01-03T14:04:52.012Z,62.84
2023-01-03T14:08:18.520Z,62.70
2023-01-03T14:11:38.034Z,63.04
2023-01-03T14:14:51.444Z,63.07
2023-01-03T14:18:00.880Z,62.85
2023-01-03T14:21:15.640Z,62.72
2023-01-03T14:24:29.435Z,62.82
2023-01-03T14:27:46.000Z,62.90
2023-01-03T14:31:02.143Z,63.08
2023-01-03T14:34:34.280Z,63.26
2023-01-03T14:37:48.592Z,63.04
2023-01-03T14:40:57.666Z,62.79
2023-01-03T14:44:15.981Z,63.09
2023-01-03T14:47:22.336Z,63.10
2023-01-03T14:50:34.101Z,62.85
2023-01-03T14:53:51.127Z,62.97
2023-01-03T14:57:05.066Z,62.97
2023-01-03T15:00:33.396Z,63.17
2023-01-03T15:03:50.141Z,63.16
2023-01-03T15:07:06.330Z,63.25
2023-01-03T15:10:24.123Z,63.12
2023-01-03T15:13:37.482Z,62.96
2023-01-03T15:16:44.408Z,63.06
2023-01-03T15:19:55.456Z,62.96
2023-01-03T15:23:02.845Z,62.86
2023-01-03T15:26:24.566Z,62.92
2023-01-03T15:29:45.389Z,63.06
2023-01-03T15:32:55.899Z,62.79
2023-01-03T15:36:03.854Z,62.71
2023-01-03T15:39:20.193Z,62.66
2023-01-03T15:42:45.872Z,62.77
2023-01-03T15:46:18.325Z,62.51
2023-01-03T15:49:30.302Z,62.59
2023-01-03T15:52:36.274Z,62.07
2023-01-03T15:55:45.612Z,61.73
2023-01-03T15:58:53.380Z,61.21
2023-01-03T16:02:00.494Z,61.55
2023-01-03T16:05:21.546Z,63.07
2023-01-03T16:08:32.949Z,63.23
2023-01-03T16:11:42.650Z,61.95
2023-01-03T16:14:59.238Z,62.46
2023-01-03T16:18:06.064Z,62.34
2023-01-03T16:21:09.791Z,61.61
2023-01-03T16:24:17.168Z,63.14
2023-01-03T16:27:23.003Z,62.72
2023-01-03T16:30:26.909Z,62.76
2023-01-03T16:33:35.226Z,61.66
2023-01-03T16:36:41.275Z,61.64
2023-01-03T16:39:48.224Z,61.41
2023-01-03T16:42:54.201Z,60.78
2023-01-03T16:46:02.735Z,60.93
2023-01-03T16:49:14.297Z,62.42
2023-01-03T16:52:26.167Z,62.61
2023-01-03T16:55:34.421Z,63.26
2023-01-03T16:58:39.338Z,63.31
2023-01-03T17:01:44.426Z,62.44
2023-01-03T17:04:49.753Z,62.51
2023-01-03T17:08:02.650Z,62.20
2023-01-03T17:11:08.434Z,61.74
2023-01-03T17:14:18.599Z,62.35
2023-01-03T17:17:24.198Z,61.09
2023-01-03T17:20:29.549Z,60.51
2023-01-03T17:23:39.087Z,61.12
2023-01-03T17:26:43.468Z,61.32
2023-01-03T17:29:48.792Z,61.49
2023-01-03T17:32:53.030Z,60.68
2023-01-03T17:35:58.273Z,60.11
2023-01-03T17:39:03.804Z,59.96
2023-01-03T17:42:16.612Z,60.83
2023-01-03T17:45:39.913Z,60.30
2023-01-03T17:49:02.834Z,60.76
2023-01-03T17:52:22.913Z,60.89
2023-01-03T17:55:30.810Z,60.47
2023-01-03T17:58:37.470Z,60.76
2023-01-03T18:01:43.320Z,60.97
2023-01-03T18:05:15.133Z,60.80
2023-01-03T18:08:20.416Z,60.25
2023-01-03T18:11:28.583Z,60.21
2023-01-03T18:14:32.370Z,59.91
2023-01-03T18:17:40.371Z,60.79
2023-01-03T18:20:43.862Z,60.93
2023-01-03T18:23:54.423Z,60.17
2023-01-03T18:26:59.644Z,59.81
2023-01-03T18:30:03.501Z,60.20
2023-01-03T18:33:13.913Z,60.59
2023-01-03T18:36:27.328Z,59.96
2023-01-03T18:39:35.040Z,61.18
2023-01-03T18:43:08.647Z,60.66
2023-01-03T18:46:38.808Z,59.63
2023-01-03T18:49:43.534Z,60.05
2023-01-03T18:52:48.546Z,60.21
2023-01-03T18:55:54.461Z,60.14
2023-01-03T18:59:02.359Z,60.34
2023-01-03T19:02:15.537Z,59.90
2023-01-03T19:05:20.053Z,60.87
2023-01-03T19:08:26.806Z,60.00
2023-01-03T19:11:35.599Z,59.91
2023-01-03T19:14:44.902Z,59.48
2023-01-03T19:17:50.719Z,59.14
2023-01-03T19:20:54.610Z,58.78
2023-01-03T19:24:03.403Z,58.98
2023-01-03T19:27:14.794Z,60.00
2023-01-03T19:30:21.829Z,59.71
2023-01-03T19:33:26.490Z,60.27
2023-01-03T19:36:30.178Z,59.80
2023-01-03T19:39:37.739Z,60.23
2023-01-03T19:42:48.648Z,60.33
2023-01-03T19:45:53.614Z,60.66
2023-01-03T19:48:57.307Z,59.49
2023-01-03T19:52:01.615Z,59.09
2023-01-03T19:55:05.993Z,59.18
2023-01-03T19:58:17.725Z,59.07
2023-01-03T20:01:21.401Z,58.79
2023-01-03T20:04:25.885Z,58.76
2023-01-03T20:07:29.903Z,58.36
2023-01-03T20:10:37.765Z,58.80
2023-01-03T20:13:43.095Z,59.07
2023-01-03T20:16:47.305Z,59.03
2023-01-03T20:19:54.241Z,59.10
2023-01-03T20:23:06.734Z,59.68
2023-01-03T20:26:24.514Z,60.46
2023-01-03T20:29:33.837Z,60.41
2023-01-03T20:32:37.918Z,60.78
2023-01-03T20:39:17.510Z,58.71
2023-01-03T20:42:23.103Z,58.90
2023-01-03T20:45:28.903Z,58.64
2023-01-03T20:48:34.517Z,59.02
2023-01-03T20:51:38.154Z,58.86
2023-01-03T20:54:46.043Z,59.12
2023-01-03T20:57:50.896Z,59.53
2023-01-03T21:01:04.026Z,59.05
2023-01-03T21:04:12.970Z,58.86
2023-01-03T21:07:29.303Z,58.05
2023-01-03T21:10:36.852Z,58.46
2023-01-03T21:13:42.291Z,58.72
2023-01-03T21:16:50.618Z,58.60
2023-01-03T21:19:56.560Z,58.50
2023-01-03T21:23:01.373Z,58.51
2023-01-03T21:26:07.677Z,59.05
2023-01-03T21:29:12.423Z,58.77
2023-01-03T21:32:17.854Z,59.29
2023-01-03T21:35:23.024Z,58.71
2023-01-03T21:38:27.346Z,58.81
2023-01-03T21:41:33.575Z,58.66
2023-01-03T21:44:37.573Z,58.54
2023-01-03T21:47:43.006Z,58.58
2023-01-03T21:50:50.018Z,59.18
2023-01-03T21:53:53.623Z,60.42
2023-01-03T21:56:58.325Z,60.24
2023-01-03T22:00:01.822Z,59.71
2023-01-03T22:03:29.147Z,60.13
2023-01-03T22:06:32.623Z,59.45
2023-01-03T22:09:54.557Z,59.25
2023-01-03T22:13:02.229Z,59.20
2023-01-03T22:16:07.693Z,59.49
2023-01-03T22:19:12.763Z,59.06
2023-01-03T22:22:17.057Z,59.11
2023-01-03T22:25:25.519Z,60.02
2023-01-03T22:28:37.114Z,60.13
2023-01-03T22:31:40.635Z,60.19
2023-01-03T22:34:46.484Z,60.09
2023-01-03T22:37:49.963Z,59.71
2023-01-03T22:40:53.838Z,59.68
2023-01-03T22:43:57.448Z,59.77
2023-01-03T22:47:02.778Z,60.78
2023-01-03T22:50:09.839Z,60.74
2023-01-03T22:53:16.691Z,60.75
2023-01-03T22:56:20.549Z,60.18
2023-01-03T22:59:24.951Z,59.91
2023-01-03T23:02:30.258Z,60.19
2023-01-03T23:05:38.109Z,60.31
2023-01-03T23:08:42.351Z,60.96
2023-01-03T23:12:04.144Z,60.31
2023-01-03T23:15:08.451Z,60.64
2023-01-03T23:18:12.435Z,60.61
2023-01-03T23:21:17.259Z,61.61
2023-01-03T23:24:26.030Z,61.98
2023-01-03T23:27:30.007Z,61.11
2023-01-03T23:30:34.088Z,60.73
2023-01-03T23:33:38.071Z,60.79
2023-01-03T23:36:43.840Z,60.24
2023-01-03T23:39:47.389Z,60.38
2023-01-03T23:42:51.247Z,60.31
2023-01-03T23:46:12.010Z,60.29
2023-01-03T23:49:26.954Z,60.93
2023-01-03T23:52:33.964Z,60.08
2023-01-03T23:55:38.377Z,60.24
2023-01-03T23:58:42.170Z,60.33
